sensor_id;sensor_type;location;lat;lon;timestamp;pressure;altitude;pressure_sealevel;temperature;humidity
56719;BME280;42597;40.636;0.278;2023-05-09T00:00:36;97637.22;;;21.49;43.13
56719;BME280;42597;40.636;0.278;2023-05-09T00:03:02;97630.31;;;22.16;41.89
56719;BME280;42597;40.636;0.278;2023-05-09T00:05:30;97634.56;;;20.76;46.25
56719;BME280;42597;40.636;0.278;2023-05-09T00:07:56;97637.50;;;21.06;47.39
56719;BME280;42597;40.636;0.278;2023-05-09T00:10:22;97634.59;;;21.31;46.38
56719;BME280;42597;40.636;0.278;2023-05-09T00:12:47;97629.84;;;20.80;49.64
56719;BME280;42597;40.636;0.278;2023-05-09T00:15:14;97624.81;;;21.27;46.86
56719;BME280;42597;40.636;0.278;2023-05-09T00:17:40;97633.53;;;22.42;42.35
56719;BME280;42597;40.636;0.278;2023-05-09T00:20:07;97618.25;;;22.68;41.31
56719;BME280;42597;40.636;0.278;2023-05-09T00:22:37;97620.28;;;22.64;42.03
56719;BME280;42597;40.636;0.278;2023-05-09T00:25:02;97622.56;;;20.41;53.60
56719;BME280;42597;40.636;0.278;2023-05-09T00:27:28;97614.41;;;21.56;46.24
56719;BME280;42597;40.636;0.278;2023-05-09T00:29:55;97613.66;;;22.58;42.50
56719;BME280;42597;40.636;0.278;2023-05-09T00:32:21;97613.16;;;22.66;42.29
56719;BME280;42597;40.636;0.278;2023-05-09T00:34:46;97608.88;;;21.97;45.80
56719;BME280;42597;40.636;0.278;2023-05-09T00:37:12;97605.28;;;22.69;42.40
56719;BME280;42597;40.636;0.278;2023-05-09T00:39:37;97605.78;;;22.87;41.85
56719;BME280;42597;40.636;0.278;2023-05-09T00:42:03;97603.03;;;22.87;41.80
56719;BME280;42597;40.636;0.278;2023-05-09T00:44:29;97599.53;;;22.83;41.73
56719;BME280;42597;40.636;0.278;2023-05-09T00:46:54;97594.03;;;22.83;42.09
56719;BME280;42597;40.636;0.278;2023-05-09T00:49:20;97600.31;;;22.83;42.15
56719;BME280;42597;40.636;0.278;2023-05-09T00:51:46;97600.97;;;22.95;42.00
56719;BME280;42597;40.636;0.278;2023-05-09T00:54:12;97588.28;;;23.01;41.70
56719;BME280;42597;40.636;0.278;2023-05-09T00:56:38;97592.19;;;23.03;41.59
56719;BME280;42597;40.636;0.278;2023-05-09T00:59:03;97591.59;;;22.92;41.89
56719;BME280;42597;40.636;0.278;2023-05-09T01:01:30;97580.56;;;22.92;42.21
56719;BME280;42597;40.636;0.278;2023-05-09T01:03:56;97575.06;;;22.92;42.15
56719;BME280;42597;40.636;0.278;2023-05-09T01:06:36;97576.13;;;22.98;42.08
56719;BME280;42597;40.636;0.278;2023-05-09T01:11:39;97559.41;;;22.82;42.63
56719;BME280;42597;40.636;0.278;2023-05-09T01:14:23;97562.81;;;22.93;42.28
56719;BME280;42597;40.636;0.278;2023-05-09T01:17:00;97569.53;;;22.92;42.40
56719;BME280;42597;40.636;0.278;2023-05-09T01:22:12;97555.63;;;22.99;42.29
56719;BME280;42597;40.636;0.278;2023-05-09T01:27:56;97561.63;;;22.94;42.39
56719;BME280;42597;40.636;0.278;2023-05-09T01:30:24;97568.78;;;22.88;42.77
56719;BME280;42597;40.636;0.278;2023-05-09T01:32:51;97567.50;;;22.96;42.55
56719;BME280;42597;40.636;0.278;2023-05-09T01:35:19;97551.06;;;22.89;42.56
56719;BME280;42597;40.636;0.278;2023-05-09T01:37:48;97558.50;;;22.92;42.48
56719;BME280;42597;40.636;0.278;2023-05-09T01:40:18;97557.66;;;22.95;42.41
56719;BME280;42597;40.636;0.278;2023-05-09T01:42:56;97568.41;;;20.56;46.71
56719;BME280;42597;40.636;0.278;2023-05-09T01:45:23;97574.13;;;20.83;46.64
56719;BME280;42597;40.636;0.278;2023-05-09T01:47:50;97564.31;;;22.09;45.08
56719;BME280;42597;40.636;0.278;2023-05-09T01:50:17;97559.38;;;22.58;43.49
56719;BME280;42597;40.636;0.278;2023-05-09T01:52:46;97557.25;;;22.70;43.33
56719;BME280;42597;40.636;0.278;2023-05-09T01:55:14;97562.06;;;22.62;43.42
56719;BME280;42597;40.636;0.278;2023-05-09T01:57:42;97556.03;;;22.71;43.17
56719;BME280;42597;40.636;0.278;2023-05-09T02:00:09;97554.00;;;22.75;42.85
56719;BME280;42597;40.636;0.278;2023-05-09T02:02:37;97544.44;;;20.60;42.40
56719;BME280;42597;40.636;0.278;2023-05-09T02:05:03;97558.09;;;18.61;48.58
56719;BME280;42597;40.636;0.278;2023-05-09T02:07:31;97541.28;;;20.61;48.00
56719;BME280;42597;40.636;0.278;2023-05-09T02:09:58;97535.28;;;22.05;44.39
56719;BME280;42597;40.636;0.278;2023-05-09T02:12:25;97544.91;;;21.07;43.55
56719;BME280;42597;40.636;0.278;2023-05-09T02:14:50;97544.66;;;21.39;44.44
56719;BME280;42597;40.636;0.278;2023-05-09T02:17:16;97535.63;;;22.07;43.94
56719;BME280;42597;40.636;0.278;2023-05-09T02:19:43;97526.97;;;22.39;43.60
56719;BME280;42597;40.636;0.278;2023-05-09T02:22:11;97540.22;;;22.21;42.74
56719;BME280;42597;40.636;0.278;2023-05-09T02:24:37;97527.44;;;22.34;43.11
56719;BME280;42597;40.636;0.278;2023-05-09T02:27:03;97535.94;;;21.44;43.24
56719;BME280;42597;40.636;0.278;2023-05-09T02:29:42;97534.28;;;22.22;43.16
56719;BME280;42597;40.636;0.278;2023-05-09T02:32:13;97535.69;;;22.34;42.92
56719;BME280;42597;40.636;0.278;2023-05-09T02:34:40;97527.09;;;22.32;42.86
56719;BME280;42597;40.636;0.278;2023-05-09T02:37:06;97532.06;;;22.10;42.94
56719;BME280;42597;40.636;0.278;2023-05-09T02:39:33;97535.16;;;20.99;40.49
56719;BME280;42597;40.636;0.278;2023-05-09T02:42:05;97534.28;;;20.53;40.81
56719;BME280;42597;40.636;0.278;2023-05-09T02:44:31;97536.88;;;20.01;42.02
56719;BME280;42597;40.636;0.278;2023-05-09T02:46:57;97540.81;;;20.00;41.64
56719;BME280;42597;40.636;0.278;2023-05-09T02:49:23;97537.06;;;19.22;43.01
56719;BME280;42597;40.636;0.278;2023-05-09T02:51:48;97536.09;;;19.97;45.32
56719;BME280;42597;40.636;0.278;2023-05-09T02:54:14;97521.84;;;20.90;43.46
56719;BME280;42597;40.636;0.278;2023-05-09T02:56:39;97511.53;;;21.50;44.24
56719;BME280;42597;40.636;0.278;2023-05-09T02:59:05;97519.06;;;21.80;42.85
56719;BME280;42597;40.636;0.278;2023-05-09T03:01:31;97517.81;;;21.50;43.98
56719;BME280;42597;40.636;0.278;2023-05-09T03:03:57;97517.06;;;21.46;42.73
56719;BME280;42597;40.636;0.278;2023-05-09T03:06:22;97519.56;;;21.30;43.92
56719;BME280;42597;40.636;0.278;2023-05-09T03:08:48;97523.22;;;19.94;42.93
56719;BME280;42597;40.636;0.278;2023-05-09T03:11:13;97525.00;;;20.26;42.79
56719;BME280;42597;40.636;0.278;2023-05-09T03:13:39;97518.22;;;21.04;43.04
56719;BME280;42597;40.636;0.278;2023-05-09T03:16:05;97516.28;;;20.49;40.64
56719;BME280;42597;40.636;0.278;2023-05-09T03:18:31;97516.59;;;20.61;40.07
56719;BME280;42597;40.636;0.278;2023-05-09T03:20:56;97517.50;;;18.92;41.86
56719;BME280;42597;40.636;0.278;2023-05-09T03:23:22;97508.53;;;20.26;45.72
56719;BME280;42597;40.636;0.278;2023-05-09T03:25:47;97506.75;;;21.57;43.60
56719;BME280;42597;40.636;0.278;2023-05-09T03:28:13;97516.69;;;21.82;42.50
56719;BME280;42597;40.636;0.278;2023-05-09T03:30:38;97521.50;;;20.21;40.48
56719;BME280;42597;40.636;0.278;2023-05-09T03:33:04;97522.63;;;20.31;42.29
56719;BME280;42597;40.636;0.278;2023-05-09T03:35:30;97521.13;;;21.31;43.62
56719;BME280;42597;40.636;0.278;2023-05-09T03:37:56;97521.41;;;21.81;42.26
56719;BME280;42597;40.636;0.278;2023-05-09T03:40:21;97519.81;;;21.01;41.12
56719;BME280;42597;40.636;0.278;2023-05-09T03:42:47;97529.22;;;21.49;43.28
56719;BME280;42597;40.636;0.278;2023-05-09T03:45:12;97516.47;;;22.00;41.97
56719;BME280;42597;40.636;0.278;2023-05-09T03:47:38;97518.09;;;21.63;40.10
56719;BME280;42597;40.636;0.278;2023-05-09T03:50:04;97515.34;;;21.18;42.86
56719;BME280;42597;40.636;0.278;2023-05-09T03:52:30;97512.28;;;21.54;41.93
56719;BME280;42597;40.636;0.278;2023-05-09T03:54:55;97513.44;;;21.15;42.74
56719;BME280;42597;40.636;0.278;2023-05-09T03:57:21;97512.63;;;20.66;38.82
56719;BME280;42597;40.636;0.278;2023-05-09T03:59:46;97508.84;;;19.43;40.43
56719;BME280;42597;40.636;0.278;2023-05-09T04:02:12;97512.03;;;18.85;39.87
56719;BME280;42597;40.636;0.278;2023-05-09T04:04:38;97509.59;;;19.65;42.06
56719;BME280;42597;40.636;0.278;2023-05-09T04:07:03;97528.13;;;20.28;41.16
56719;BME280;42597;40.636;0.278;2023-05-09T04:09:29;97507.31;;;20.34;42.57
56719;BME280;42597;40.636;0.278;2023-05-09T04:11:55;97513.47;;;19.79;42.95
56719;BME280;42597;40.636;0.278;2023-05-09T04:14:20;97504.75;;;21.16;42.95
56719;BME280;42597;40.636;0.278;2023-05-09T04:16:46;97503.09;;;21.67;42.18
56719;BME280;42597;40.636;0.278;2023-05-09T04:19:11;97504.94;;;21.78;41.58
56719;BME280;42597;40.636;0.278;2023-05-09T04:21:37;97500.16;;;21.82;41.36
56719;BME280;42597;40.636;0.278;2023-05-09T04:24:02;97510.34;;;21.85;40.83
56719;BME280;42597;40.636;0.278;2023-05-09T04:26:28;97502.19;;;21.78;41.41
56719;BME280;42597;40.636;0.278;2023-05-09T04:28:55;97501.63;;;21.90;40.96
56719;BME280;42597;40.636;0.278;2023-05-09T04:31:21;97503.66;;;21.86;40.92
56719;BME280;42597;40.636;0.278;2023-05-09T04:33:47;97500.88;;;21.10;39.12
56719;BME280;42597;40.636;0.278;2023-05-09T04:36:13;97511.84;;;19.92;40.58
56719;BME280;42597;40.636;0.278;2023-05-09T04:38:38;97503.13;;;20.15;43.10
56719;BME280;42597;40.636;0.278;2023-05-09T04:41:04;97498.19;;;21.48;41.88
56719;BME280;42597;40.636;0.278;2023-05-09T04:43:29;97500.63;;;21.77;40.97
56719;BME280;42597;40.636;0.278;2023-05-09T04:45:55;97515.66;;;20.16;40.82
56719;BME280;42597;40.636;0.278;2023-05-09T04:48:21;97513.25;;;21.36;41.78
56719;BME280;42597;40.636;0.278;2023-05-09T04:50:46;97506.56;;;21.75;41.13
56719;BME280;42597;40.636;0.278;2023-05-09T04:53:13;97498.69;;;21.74;41.30
56719;BME280;42597;40.636;0.278;2023-05-09T04:55:38;97504.03;;;21.88;40.97
56719;BME280;42597;40.636;0.278;2023-05-09T04:58:04;97516.69;;;21.82;40.73
56719;BME280;42597;40.636;0.278;2023-05-09T05:00:30;97513.91;;;21.82;40.69
56719;BME280;42597;40.636;0.278;2023-05-09T05:02:55;97522.81;;;19.92;40.05
56719;BME280;42597;40.636;0.278;2023-05-09T05:05:21;97526.84;;;19.37;40.07
56719;BME280;42597;40.636;0.278;2023-05-09T05:07:46;97529.06;;;19.96;41.02
56719;BME280;42597;40.636;0.278;2023-05-09T05:10:12;97527.63;;;20.47;42.41
56719;BME280;42597;40.636;0.278;2023-05-09T05:12:38;97524.66;;;21.31;41.42
56719;BME280;42597;40.636;0.278;2023-05-09T05:15:04;97524.78;;;21.58;41.20
56719;BME280;42597;40.636;0.278;2023-05-09T05:17:29;97515.19;;;21.74;41.05
56719;BME280;42597;40.636;0.278;2023-05-09T05:19:55;97513.03;;;21.54;40.80
56719;BME280;42597;40.636;0.278;2023-05-09T05:22:21;97518.25;;;21.45;40.80
56719;BME280;42597;40.636;0.278;2023-05-09T05:24:47;97520.06;;;21.17;40.96
56719;BME280;42597;40.636;0.278;2023-05-09T05:27:12;97520.94;;;21.07;40.77
56719;BME280;42597;40.636;0.278;2023-05-09T05:29:38;97519.41;;;20.47;41.41
56719;BME280;42597;40.636;0.278;2023-05-09T05:32:04;97518.19;;;19.75;39.26
56719;BME280;42597;40.636;0.278;2023-05-09T05:34:29;97511.25;;;18.95;42.04
56719;BME280;42597;40.636;0.278;2023-05-09T05:36:55;97508.22;;;20.83;42.37
56719;BME280;42597;40.636;0.278;2023-05-09T05:39:21;97506.72;;;19.97;39.16
56719;BME280;42597;40.636;0.278;2023-05-09T05:41:46;97499.22;;;21.24;41.78
56719;BME280;42597;40.636;0.278;2023-05-09T05:44:12;97501.25;;;20.67;38.59
56719;BME280;42597;40.636;0.278;2023-05-09T05:46:37;97494.78;;;19.20;39.80
56719;BME280;42597;40.636;0.278;2023-05-09T05:49:03;97501.06;;;19.20;40.99
56719;BME280;42597;40.636;0.278;2023-05-09T05:51:28;97506.09;;;18.43;41.30
56719;BME280;42597;40.636;0.278;2023-05-09T05:53:55;97501.00;;;19.63;41.27
56719;BME280;42597;40.636;0.278;2023-05-09T05:56:20;97492.50;;;18.90;41.81
56719;BME280;42597;40.636;0.278;2023-05-09T05:58:47;97486.91;;;19.47;41.95
56719;BME280;42597;40.636;0.278;2023-05-09T06:01:12;97477.13;;;20.34;42.78
56719;BME280;42597;40.636;0.278;2023-05-09T06:03:38;97461.84;;;20.33;42.04
56719;BME280;42597;40.636;0.278;2023-05-09T06:06:03;97453.66;;;21.23;41.69
56719;BME280;42597;40.636;0.278;2023-05-09T06:08:30;97447.91;;;21.51;41.14
56719;BME280;42597;40.636;0.278;2023-05-09T06:10:55;97461.94;;;21.60;40.70
56719;BME280;42597;40.636;0.278;2023-05-09T06:13:21;97469.28;;;20.36;41.37
56719;BME280;42597;40.636;0.278;2023-05-09T06:15:46;97478.16;;;21.06;41.87
56719;BME280;42597;40.636;0.278;2023-05-09T06:18:12;97467.03;;;21.20;41.79
56719;BME280;42597;40.636;0.278;2023-05-09T06:20:38;97479.34;;;20.57;40.37
56719;BME280;42597;40.636;0.278;2023-05-09T06:23:03;97477.84;;;19.61;42.68
56719;BME280;42597;40.636;0.278;2023-05-09T06:25:29;97475.91;;;19.68;41.98
56719;BME280;42597;40.636;0.278;2023-05-09T06:27:54;97457.06;;;20.48;42.82
56719;BME280;42597;40.636;0.278;2023-05-09T06:30:20;97460.09;;;19.97;40.91
56719;BME280;42597;40.636;0.278;2023-05-09T06:32:45;97467.84;;;20.10;41.42
56719;BME280;42597;40.636;0.278;2023-05-09T06:35:11;97473.97;;;20.39;41.20
56719;BME280;42597;40.636;0.278;2023-05-09T06:37:37;97468.59;;;21.22;41.94
56719;BME280;42597;40.636;0.278;2023-05-09T06:40:02;97469.09;;;21.51;41.12
56719;BME280;42597;40.636;0.278;2023-05-09T06:42:28;97470.22;;;21.57;41.68
56719;BME280;42597;40.636;0.278;2023-05-09T06:44:56;97464.66;;;21.23;41.93
56719;BME280;42597;40.636;0.278;2023-05-09T06:47:22;97464.84;;;20.56;41.54
56719;BME280;42597;40.636;0.278;2023-05-09T06:49:47;97458.72;;;21.28;42.51
56719;BME280;42597;40.636;0.278;2023-05-09T06:52:13;97464.78;;;20.67;42.49
56719;BME280;42597;40.636;0.278;2023-05-09T06:54:40;97466.16;;;21.31;43.17
56719;BME280;42597;40.636;0.278;2023-05-09T06:57:06;97459.88;;;21.68;42.38
56719;BME280;42597;40.636;0.278;2023-05-09T06:59:32;97453.13;;;21.73;42.51
56719;BME280;42597;40.636;0.278;2023-05-09T07:01:58;97449.66;;;21.99;41.96
56719;BME280;42597;40.636;0.278;2023-05-09T07:04:23;97453.50;;;22.05;41.40
56719;BME280;42597;40.636;0.278;2023-05-09T07:06:49;97461.41;;;22.03;41.56
56719;BME280;42597;40.636;0.278;2023-05-09T07:09:15;97460.41;;;21.86;42.30
56719;BME280;42597;40.636;0.278;2023-05-09T07:11:44;97473.16;;;20.94;42.75
56719;BME280;42597;40.636;0.278;2023-05-09T07:14:10;97470.91;;;21.27;42.12
56719;BME280;42597;40.636;0.278;2023-05-09T07:16:36;97473.47;;;21.07;43.17
56719;BME280;42597;40.636;0.278;2023-05-09T07:19:01;97475.56;;;21.30;44.52
56719;BME280;42597;40.636;0.278;2023-05-09T07:21:27;97472.50;;;21.24;46.97
56719;BME280;42597;40.636;0.278;2023-05-09T07:23:52;97463.03;;;21.29;48.28
56719;BME280;42597;40.636;0.278;2023-05-09T07:26:18;97462.69;;;21.27;49.04
56719;BME280;42597;40.636;0.278;2023-05-09T07:28:43;97464.19;;;21.31;50.94
56719;BME280;42597;40.636;0.278;2023-05-09T07:31:09;97470.03;;;21.37;49.75
56719;BME280;42597;40.636;0.278;2023-05-09T07:33:35;97460.53;;;21.45;49.16
56719;BME280;42597;40.636;0.278;2023-05-09T07:36:00;97465.94;;;21.52;50.16
56719;BME280;42597;40.636;0.278;2023-05-09T07:38:26;97472.94;;;21.60;49.26
56719;BME280;42597;40.636;0.278;2023-05-09T07:40:52;97466.31;;;21.54;49.37
56719;BME280;42597;40.636;0.278;2023-05-09T07:43:18;97466.28;;;21.58;48.71
56719;BME280;42597;40.636;0.278;2023-05-09T07:45:43;97464.34;;;21.55;48.75
56719;BME280;42597;40.636;0.278;2023-05-09T07:48:09;97462.94;;;21.74;48.35
56719;BME280;42597;40.636;0.278;2023-05-09T07:50:34;97466.84;;;21.76;49.44
56719;BME280;42597;40.636;0.278;2023-05-09T07:53:00;97468.72;;;21.83;48.88
56719;BME280;42597;40.636;0.278;2023-05-09T07:55:25;97468.97;;;21.96;48.05
56719;BME280;42597;40.636;0.278;2023-05-09T07:57:51;97467.81;;;21.93;48.35
56719;BME280;42597;40.636;0.278;2023-05-09T08:00:17;97462.31;;;21.93;49.49
56719;BME280;42597;40.636;0.278;2023-05-09T08:02:48;97457.53;;;21.97;48.46
56719;BME280;42597;40.636;0.278;2023-05-09T08:05:13;97454.22;;;22.13;48.79
56719;BME280;42597;40.636;0.278;2023-05-09T08:07:39;97459.72;;;22.09;49.99
56719;BME280;42597;40.636;0.278;2023-05-09T08:10:05;97452.63;;;22.15;48.33
56719;BME280;42597;40.636;0.278;2023-05-09T08:12:31;97454.03;;;22.27;47.97
56719;BME280;42597;40.636;0.278;2023-05-09T08:14:56;97455.63;;;22.52;44.43
56719;BME280;42597;40.636;0.278;2023-05-09T08:17:22;97460.75;;;22.50;48.79
56719;BME280;42597;40.636;0.278;2023-05-09T08:19:48;97458.97;;;22.63;50.13
56719;BME280;42597;40.636;0.278;2023-05-09T08:22:17;97459.44;;;22.31;54.72
56719;BME280;42597;40.636;0.278;2023-05-09T08:24:43;97452.53;;;22.46;56.15
56719;BME280;42597;40.636;0.278;2023-05-09T08:27:10;97453.16;;;22.57;57.21
56719;BME280;42597;40.636;0.278;2023-05-09T08:29:41;97453.41;;;22.66;56.20
56719;BME280;42597;40.636;0.278;2023-05-09T08:32:07;97450.91;;;22.76;56.25
56719;BME280;42597;40.636;0.278;2023-05-09T08:34:33;97449.88;;;22.66;56.21
56719;BME280;42597;40.636;0.278;2023-05-09T08:37:00;97444.47;;;22.82;54.96
56719;BME280;42597;40.636;0.278;2023-05-09T08:39:26;97447.09;;;22.66;56.11
56719;BME280;42597;40.636;0.278;2023-05-09T08:41:58;97450.19;;;22.72;56.18
56719;BME280;42597;40.636;0.278;2023-05-09T08:44:24;97452.66;;;22.62;55.08
56719;BME280;42597;40.636;0.278;2023-05-09T08:47:01;97444.34;;;22.93;54.73
56719;BME280;42597;40.636;0.278;2023-05-09T08:49:27;97447.88;;;22.90;52.81
56719;BME280;42597;40.636;0.278;2023-05-09T08:51:54;97437.88;;;23.23;52.28
56719;BME280;42597;40.636;0.278;2023-05-09T08:54:21;97439.16;;;23.19;50.41
56719;BME280;42597;40.636;0.278;2023-05-09T08:56:47;97429.34;;;23.37;48.80
56719;BME280;42597;40.636;0.278;2023-05-09T08:59:13;97439.38;;;23.48;45.20
56719;BME280;42597;40.636;0.278;2023-05-09T09:01:39;97433.94;;;23.44;49.46
56719;BME280;42597;40.636;0.278;2023-05-09T09:04:07;97429.84;;;23.52;47.22
56719;BME280;42597;40.636;0.278;2023-05-09T09:06:34;97438.06;;;23.36;45.38
56719;BME280;42597;40.636;0.278;2023-05-09T09:09:01;97438.66;;;23.44;44.93
56719;BME280;42597;40.636;0.278;2023-05-09T09:11:30;97443.88;;;23.18;46.12
56719;BME280;42597;40.636;0.278;2023-05-09T09:14:01;97442.97;;;23.25;45.11
56719;BME280;42597;40.636;0.278;2023-05-09T09:16:31;97432.59;;;23.52;45.62
56719;BME280;42597;40.636;0.278;2023-05-09T09:18:57;97443.97;;;23.54;44.74
56719;BME280;42597;40.636;0.278;2023-05-09T09:21:24;97438.31;;;23.61;44.22
56719;BME280;42597;40.636;0.278;2023-05-09T09:23:51;97435.59;;;23.81;44.22
56719;BME280;42597;40.636;0.278;2023-05-09T09:26:17;97444.78;;;23.75;43.19
56719;BME280;42597;40.636;0.278;2023-05-09T09:28:42;97445.28;;;23.70;42.02
56719;BME280;42597;40.636;0.278;2023-05-09T09:31:21;97450.06;;;24.05;41.93
56719;BME280;42597;40.636;0.278;2023-05-09T09:33:48;97455.88;;;23.91;42.80
56719;BME280;42597;40.636;0.278;2023-05-09T09:36:13;97440.72;;;23.99;42.97
56719;BME280;42597;40.636;0.278;2023-05-09T09:38:40;97438.34;;;24.18;41.78
56719;BME280;42597;40.636;0.278;2023-05-09T09:41:08;97428.66;;;24.09;41.29
56719;BME280;42597;40.636;0.278;2023-05-09T09:43:35;97417.66;;;24.26;41.22
56719;BME280;42597;40.636;0.278;2023-05-09T09:46:02;97422.31;;;24.29;40.03
56719;BME280;42597;40.636;0.278;2023-05-09T09:48:34;97419.56;;;24.29;40.70
56719;BME280;42597;40.636;0.278;2023-05-09T09:51:08;97420.56;;;24.35;40.94
56719;BME280;42597;40.636;0.278;2023-05-09T09:53:40;97417.28;;;24.24;39.29
56719;BME280;42597;40.636;0.278;2023-05-09T09:56:06;97418.91;;;24.57;40.22
56719;BME280;42597;40.636;0.278;2023-05-09T09:58:32;97414.69;;;24.53;39.88
56719;BME280;42597;40.636;0.278;2023-05-09T10:01:06;97419.75;;;24.54;39.54
56719;BME280;42597;40.636;0.278;2023-05-09T10:03:36;97419.91;;;24.63;39.59
56719;BME280;42597;40.636;0.278;2023-05-09T10:06:02;97421.22;;;24.75;40.04
56719;BME280;42597;40.636;0.278;2023-05-09T10:08:28;97411.78;;;24.89;39.82
56719;BME280;42597;40.636;0.278;2023-05-09T10:10:54;97407.13;;;24.86;40.06
56719;BME280;42597;40.636;0.278;2023-05-09T10:13:19;97407.53;;;25.01;40.81
56719;BME280;42597;40.636;0.278;2023-05-09T10:15:46;97412.53;;;24.60;40.59
56719;BME280;42597;40.636;0.278;2023-05-09T10:18:12;97399.88;;;24.76;40.94
56719;BME280;42597;40.636;0.278;2023-05-09T10:20:43;97391.13;;;24.94;41.50
56719;BME280;42597;40.636;0.278;2023-05-09T10:23:11;97388.66;;;24.83;41.32
56719;BME280;42597;40.636;0.278;2023-05-09T10:25:48;97382.84;;;24.94;40.12
56719;BME280;42597;40.636;0.278;2023-05-09T10:28:17;97376.66;;;25.19;40.89
56719;BME280;42597;40.636;0.278;2023-05-09T10:31:04;97378.75;;;25.15;41.60
56719;BME280;42597;40.636;0.278;2023-05-09T10:33:52;97363.53;;;25.06;40.51
56719;BME280;42597;40.636;0.278;2023-05-09T10:36:19;97356.28;;;24.96;39.84
56719;BME280;42597;40.636;0.278;2023-05-09T10:38:46;97359.53;;;25.24;40.88
56719;BME280;42597;40.636;0.278;2023-05-09T10:41:12;97357.50;;;25.11;43.31
56719;BME280;42597;40.636;0.278;2023-05-09T10:43:40;97358.66;;;25.27;43.23
56719;BME280;42597;40.636;0.278;2023-05-09T10:46:07;97349.22;;;25.53;43.89
56719;BME280;42597;40.636;0.278;2023-05-09T10:48:34;97350.28;;;25.43;43.20
56719;BME280;42597;40.636;0.278;2023-05-09T10:51:01;97357.06;;;25.13;44.25
56719;BME280;42597;40.636;0.278;2023-05-09T10:53:44;97354.25;;;24.84;44.70
56719;BME280;42597;40.636;0.278;2023-05-09T10:58:48;97338.66;;;25.06;44.18
56719;BME280;42597;40.636;0.278;2023-05-09T11:01:13;97331.47;;;25.38;44.53
56719;BME280;42597;40.636;0.278;2023-05-09T11:06:45;97323.53;;;25.66;42.91
56719;BME280;42597;40.636;0.278;2023-05-09T11:09:32;97323.97;;;25.77;42.36
56719;BME280;42597;40.636;0.278;2023-05-09T11:14:40;97329.38;;;25.42;41.28
56719;BME280;42597;40.636;0.278;2023-05-09T11:17:12;97329.84;;;25.66;42.00
56719;BME280;42597;40.636;0.278;2023-05-09T11:22:14;97318.22;;;25.58;41.09
56719;BME280;42597;40.636;0.278;2023-05-09T11:24:47;97321.19;;;25.51;40.61
56719;BME280;42597;40.636;0.278;2023-05-09T11:27:24;97321.22;;;25.09;40.49
56719;BME280;42597;40.636;0.278;2023-05-09T11:29:57;97309.25;;;25.54;40.37
56719;BME280;42597;40.636;0.278;2023-05-09T11:32:45;97309.53;;;25.86;40.13
56719;BME280;42597;40.636;0.278;2023-05-09T11:35:16;97304.72;;;26.12;40.13
56719;BME280;42597;40.636;0.278;2023-05-09T11:40:12;97308.28;;;25.99;39.87
56719;BME280;42597;40.636;0.278;2023-05-09T11:42:41;97307.59;;;26.08;39.50
56719;BME280;42597;40.636;0.278;2023-05-09T11:45:11;97300.50;;;26.20;40.12
56719;BME280;42597;40.636;0.278;2023-05-09T11:47:36;97293.41;;;26.19;40.53
56719;BME280;42597;40.636;0.278;2023-05-09T11:50:06;97290.06;;;26.24;40.36
56719;BME280;42597;40.636;0.278;2023-05-09T11:52:32;97287.06;;;26.31;39.23
56719;BME280;42597;40.636;0.278;2023-05-09T11:54:58;97282.34;;;26.19;40.11
56719;BME280;42597;40.636;0.278;2023-05-09T11:57:24;97287.25;;;25.89;39.79
56719;BME280;42597;40.636;0.278;2023-05-09T11:59:50;97285.25;;;26.02;39.56
56719;BME280;42597;40.636;0.278;2023-05-09T12:02:15;97280.38;;;26.06;40.77
56719;BME280;42597;40.636;0.278;2023-05-09T12:04:41;97282.38;;;25.80;42.08
56719;BME280;42597;40.636;0.278;2023-05-09T12:07:10;97290.13;;;25.98;42.18
56719;BME280;42597;40.636;0.278;2023-05-09T12:09:36;97291.00;;;25.95;42.29
56719;BME280;42597;40.636;0.278;2023-05-09T12:12:11;97300.28;;;25.50;42.85
56719;BME280;42597;40.636;0.278;2023-05-09T12:14:38;97303.44;;;25.78;42.36
56719;BME280;42597;40.636;0.278;2023-05-09T12:17:05;97300.94;;;25.54;42.12
56719;BME280;42597;40.636;0.278;2023-05-09T12:19:31;97298.41;;;25.60;41.98
56719;BME280;42597;40.636;0.278;2023-05-09T12:21:58;97290.34;;;25.66;42.19
56719;BME280;42597;40.636;0.278;2023-05-09T12:24:25;97294.28;;;25.65;41.68
56719;BME280;42597;40.636;0.278;2023-05-09T12:26:51;97295.84;;;25.40;42.47
56719;BME280;42597;40.636;0.278;2023-05-09T12:29:18;97293.88;;;25.53;42.93
56719;BME280;42597;40.636;0.278;2023-05-09T12:31:45;97297.00;;;25.81;42.43
56719;BME280;42597;40.636;0.278;2023-05-09T12:34:11;97295.22;;;25.74;43.41
56719;BME280;42597;40.636;0.278;2023-05-09T12:36:38;97308.69;;;25.72;43.72
56719;BME280;42597;40.636;0.278;2023-05-09T12:39:10;97308.22;;;25.48;43.37
56719;BME280;42597;40.636;0.278;2023-05-09T12:41:43;97297.63;;;25.59;43.16
56719;BME280;42597;40.636;0.278;2023-05-09T12:44:17;97302.75;;;25.74;42.46
56719;BME280;42597;40.636;0.278;2023-05-09T12:46:55;97290.19;;;25.56;44.61
56719;BME280;42597;40.636;0.278;2023-05-09T12:49:22;97291.44;;;25.55;44.00
56719;BME280;42597;40.636;0.278;2023-05-09T12:51:49;97296.72;;;25.37;45.26
56719;BME280;42597;40.636;0.278;2023-05-09T12:54:25;97286.56;;;25.59;45.46
56719;BME280;42597;40.636;0.278;2023-05-09T12:56:52;97288.34;;;25.53;42.87
56719;BME280;42597;40.636;0.278;2023-05-09T12:59:36;97293.41;;;25.42;41.72
56719;BME280;42597;40.636;0.278;2023-05-09T13:02:01;97295.97;;;25.49;41.87
56719;BME280;42597;40.636;0.278;2023-05-09T13:04:27;97297.94;;;25.36;41.27
56719;BME280;42597;40.636;0.278;2023-05-09T13:06:55;97291.63;;;25.48;40.90
56719;BME280;42597;40.636;0.278;2023-05-09T13:09:23;97299.09;;;25.09;42.31
56719;BME280;42597;40.636;0.278;2023-05-09T13:11:49;97292.31;;;25.52;42.03
56719;BME280;42597;40.636;0.278;2023-05-09T13:14:16;97292.09;;;25.59;42.20
56719;BME280;42597;40.636;0.278;2023-05-09T13:16:42;97279.59;;;25.42;41.54
56719;BME280;42597;40.636;0.278;2023-05-09T13:19:08;97286.53;;;25.34;41.79
56719;BME280;42597;40.636;0.278;2023-05-09T13:21:35;97282.75;;;25.28;40.72